Terminal Aerodrome Forecast
Issued by NWS Charleston, WV

Current Version | Previous Version | Graphics & Text | Print | Product List | Glossary On
Versions: 1 2 3 4 5 6 7 8 9 10 11 12 13 14 15 16 17 18 19 20 21 22 23 24 25 26 27 28
097
FTUS41 KRLX 220231 AAA
TAFEKN
TAF AMD
KEKN 220231Z 2203/2224 19002KT P6SM BKN100
     FM220400 00000KT P6SM BKN060
     FM221000 00000KT 5SM -SHRA BR OVC040
     FM221400 16003KT P6SM OVC035
     FM222100 18005KT P6SM OVC030=

USA.gov is the U.S. government's official web portal to all federal, state and local government web resources and services.